sensor_id;sensor_type;location;lat;lon;timestamp;temperature;humidity
24800;DHT22;12897;50.812;4.430;2022-09-06T00:01:25;18.70;99.90
24800;DHT22;12897;50.812;4.430;2022-09-06T00:03:52;18.70;99.90
24800;DHT22;12897;50.812;4.430;2022-09-06T00:06:20;18.80;99.90
24800;DHT22;12897;50.812;4.430;2022-09-06T00:08:48;18.80;99.90
24800;DHT22;12897;50.812;4.430;2022-09-06T00:11:16;18.70;99.90
24800;DHT22;12897;50.812;4.430;2022-09-06T00:13:44;18.70;99.90
24800;DHT22;12897;50.812;4.430;2022-09-06T00:16:18;18.70;99.90
24800;DHT22;12897;50.812;4.430;2022-09-06T00:18:45;18.60;99.90
24800;DHT22;12897;50.812;4.430;2022-09-06T00:21:25;18.50;99.90
24800;DHT22;12897;50.812;4.430;2022-09-06T00:23:45;18.50;99.90
24800;DHT22;12897;50.812;4.430;2022-09-06T00:26:13;18.60;99.90
24800;DHT22;12897;50.812;4.430;2022-09-06T00:28:41;18.60;99.90
24800;DHT22;12897;50.812;4.430;2022-09-06T00:31:13;18.60;99.90
24800;DHT22;12897;50.812;4.430;2022-09-06T00:33:41;18.50;99.90
24800;DHT22;12897;50.812;4.430;2022-09-06T00:36:10;18.50;99.90
24800;DHT22;12897;50.812;4.430;2022-09-06T00:38:38;18.50;99.90
24800;DHT22;12897;50.812;4.430;2022-09-06T00:41:07;18.50;99.90
24800;DHT22;12897;50.812;4.430;2022-09-06T00:43:35;18.40;99.90
24800;DHT22;12897;50.812;4.430;2022-09-06T00:46:04;18.50;99.90
24800;DHT22;12897;50.812;4.430;2022-09-06T00:48:33;18.50;99.90
24800;DHT22;12897;50.812;4.430;2022-09-06T00:51:04;18.60;99.90
24800;DHT22;12897;50.812;4.430;2022-09-06T00:53:32;18.50;99.90
24800;DHT22;12897;50.812;4.430;2022-09-06T00:56:00;18.60;99.90
24800;DHT22;12897;50.812;4.430;2022-09-06T00:58:28;18.40;99.90
24800;DHT22;12897;50.812;4.430;2022-09-06T01:00:55;18.40;99.90
24800;DHT22;12897;50.812;4.430;2022-09-06T01:03:24;18.20;99.90
24800;DHT22;12897;50.812;4.430;2022-09-06T01:06:13;18.20;99.90
24800;DHT22;12897;50.812;4.430;2022-09-06T01:14:22;18.10;99.90
24800;DHT22;12897;50.812;4.430;2022-09-06T01:30:42;18.20;99.90
24800;DHT22;12897;50.812;4.430;2022-09-06T01:36:01;18.10;99.90
24800;DHT22;12897;50.812;4.430;2022-09-06T01:38:30;18.20;99.90
24800;DHT22;12897;50.812;4.430;2022-09-06T01:40:58;18.10;99.90
24800;DHT22;12897;50.812;4.430;2022-09-06T01:43:34;18.10;99.90
24800;DHT22;12897;50.812;4.430;2022-09-06T01:46:30;18.10;99.90
24800;DHT22;12897;50.812;4.430;2022-09-06T01:54:26;18.30;99.90
24800;DHT22;12897;50.812;4.430;2022-09-06T02:00:06;18.20;99.90
24800;DHT22;12897;50.812;4.430;2022-09-06T02:05:28;18.10;99.90
24800;DHT22;12897;50.812;4.430;2022-09-06T02:08:05;18.10;99.90
24800;DHT22;12897;50.812;4.430;2022-09-06T02:10:36;18.10;99.90
24800;DHT22;12897;50.812;4.430;2022-09-06T02:13:04;18.00;99.90
24800;DHT22;12897;50.812;4.430;2022-09-06T02:15:36;18.00;99.90
24800;DHT22;12897;50.812;4.430;2022-09-06T02:18:05;18.00;99.90
24800;DHT22;12897;50.812;4.430;2022-09-06T02:20:35;18.10;99.90
24800;DHT22;12897;50.812;4.430;2022-09-06T02:23:06;18.10;99.90
24800;DHT22;12897;50.812;4.430;2022-09-06T02:25:40;18.10;99.90
24800;DHT22;12897;50.812;4.430;2022-09-06T02:28:08;18.00;99.90
24800;DHT22;12897;50.812;4.430;2022-09-06T02:30:39;18.00;99.90
24800;DHT22;12897;50.812;4.430;2022-09-06T02:33:09;18.10;99.90
24800;DHT22;12897;50.812;4.430;2022-09-06T02:35:51;18.10;99.90
24800;DHT22;12897;50.812;4.430;2022-09-06T02:38:15;18.20;99.90
24800;DHT22;12897;50.812;4.430;2022-09-06T02:40:45;18.10;99.90
24800;DHT22;12897;50.812;4.430;2022-09-06T02:43:13;18.00;99.90
24800;DHT22;12897;50.812;4.430;2022-09-06T02:45:40;18.10;99.90
24800;DHT22;12897;50.812;4.430;2022-09-06T02:48:07;18.00;99.90
24800;DHT22;12897;50.812;4.430;2022-09-06T02:50:35;18.00;99.90
24800;DHT22;12897;50.812;4.430;2022-09-06T02:53:05;18.10;99.90
24800;DHT22;12897;50.812;4.430;2022-09-06T02:55:35;18.00;99.90
24800;DHT22;12897;50.812;4.430;2022-09-06T02:58:04;18.00;99.90
24800;DHT22;12897;50.812;4.430;2022-09-06T03:00:32;18.00;99.90
24800;DHT22;12897;50.812;4.430;2022-09-06T03:03:00;18.00;99.90
24800;DHT22;12897;50.812;4.430;2022-09-06T03:05:29;18.00;99.90
24800;DHT22;12897;50.812;4.430;2022-09-06T03:07:57;17.90;99.90
24800;DHT22;12897;50.812;4.430;2022-09-06T03:10:25;18.00;99.90
24800;DHT22;12897;50.812;4.430;2022-09-06T03:12:52;18.10;99.90
24800;DHT22;12897;50.812;4.430;2022-09-06T03:15:20;18.00;99.90
24800;DHT22;12897;50.812;4.430;2022-09-06T03:17:48;17.90;99.90
24800;DHT22;12897;50.812;4.430;2022-09-06T03:20:15;17.80;99.90
24800;DHT22;12897;50.812;4.430;2022-09-06T03:22:43;17.80;99.90
24800;DHT22;12897;50.812;4.430;2022-09-06T03:25:10;17.80;99.90
24800;DHT22;12897;50.812;4.430;2022-09-06T03:27:38;17.90;99.90
24800;DHT22;12897;50.812;4.430;2022-09-06T03:30:06;18.00;99.90
24800;DHT22;12897;50.812;4.430;2022-09-06T03:32:34;18.00;99.90
24800;DHT22;12897;50.812;4.430;2022-09-06T03:35:02;17.90;99.90
24800;DHT22;12897;50.812;4.430;2022-09-06T03:37:29;18.00;99.90
24800;DHT22;12897;50.812;4.430;2022-09-06T03:39:57;18.20;99.90
24800;DHT22;12897;50.812;4.430;2022-09-06T03:42:25;18.20;99.90
24800;DHT22;12897;50.812;4.430;2022-09-06T03:44:53;18.10;99.90
24800;DHT22;12897;50.812;4.430;2022-09-06T03:47:20;18.00;99.90
24800;DHT22;12897;50.812;4.430;2022-09-06T03:49:48;18.00;99.90
24800;DHT22;12897;50.812;4.430;2022-09-06T03:52:16;17.90;99.90
24800;DHT22;12897;50.812;4.430;2022-09-06T03:54:44;17.90;99.90
24800;DHT22;12897;50.812;4.430;2022-09-06T03:57:12;18.00;99.90
24800;DHT22;12897;50.812;4.430;2022-09-06T03:59:39;18.00;99.90
24800;DHT22;12897;50.812;4.430;2022-09-06T04:02:07;18.00;99.90
24800;DHT22;12897;50.812;4.430;2022-09-06T04:04:34;18.10;99.90
24800;DHT22;12897;50.812;4.430;2022-09-06T04:07:02;18.20;99.90
24800;DHT22;12897;50.812;4.430;2022-09-06T04:09:29;18.20;99.90
24800;DHT22;12897;50.812;4.430;2022-09-06T04:11:57;18.20;99.90
24800;DHT22;12897;50.812;4.430;2022-09-06T04:14:25;18.10;99.90
24800;DHT22;12897;50.812;4.430;2022-09-06T04:16:52;18.10;99.90
24800;DHT22;12897;50.812;4.430;2022-09-06T04:19:20;18.10;99.90
24800;DHT22;12897;50.812;4.430;2022-09-06T04:21:47;18.20;99.90
24800;DHT22;12897;50.812;4.430;2022-09-06T04:24:15;18.20;99.90
24800;DHT22;12897;50.812;4.430;2022-09-06T04:26:42;18.20;99.90
24800;DHT22;12897;50.812;4.430;2022-09-06T04:29:10;18.20;99.90
24800;DHT22;12897;50.812;4.430;2022-09-06T04:31:37;18.20;99.90
24800;DHT22;12897;50.812;4.430;2022-09-06T04:34:05;18.10;99.90
24800;DHT22;12897;50.812;4.430;2022-09-06T04:36:32;18.00;99.90
24800;DHT22;12897;50.812;4.430;2022-09-06T04:39:00;18.10;99.90
24800;DHT22;12897;50.812;4.430;2022-09-06T04:41:28;18.10;99.90
24800;DHT22;12897;50.812;4.430;2022-09-06T04:43:56;18.00;99.90
24800;DHT22;12897;50.812;4.430;2022-09-06T04:46:30;17.90;99.90
24800;DHT22;12897;50.812;4.430;2022-09-06T04:48:54;17.90;99.90
24800;DHT22;12897;50.812;4.430;2022-09-06T04:51:23;18.10;99.90
24800;DHT22;12897;50.812;4.430;2022-09-06T04:53:51;18.00;99.90
24800;DHT22;12897;50.812;4.430;2022-09-06T04:56:20;18.00;99.90
24800;DHT22;12897;50.812;4.430;2022-09-06T04:58:49;18.20;99.90
24800;DHT22;12897;50.812;4.430;2022-09-06T05:01:17;18.20;99.90
24800;DHT22;12897;50.812;4.430;2022-09-06T05:03:46;18.20;99.90
24800;DHT22;12897;50.812;4.430;2022-09-06T05:06:18;18.10;99.90
24800;DHT22;12897;50.812;4.430;2022-09-06T05:08:47;18.10;99.90
24800;DHT22;12897;50.812;4.430;2022-09-06T05:11:15;18.10;99.90
24800;DHT22;12897;50.812;4.430;2022-09-06T05:13:44;18.10;99.90
24800;DHT22;12897;50.812;4.430;2022-09-06T05:16:13;18.10;99.90
24800;DHT22;12897;50.812;4.430;2022-09-06T05:18:41;18.10;99.90
24800;DHT22;12897;50.812;4.430;2022-09-06T05:21:09;18.20;99.90
24800;DHT22;12897;50.812;4.430;2022-09-06T05:23:37;18.40;99.90
24800;DHT22;12897;50.812;4.430;2022-09-06T05:26:04;18.40;99.90
24800;DHT22;12897;50.812;4.430;2022-09-06T05:28:32;18.40;99.90
24800;DHT22;12897;50.812;4.430;2022-09-06T05:31:08;18.30;99.90
24800;DHT22;12897;50.812;4.430;2022-09-06T05:33:36;18.30;99.90
24800;DHT22;12897;50.812;4.430;2022-09-06T05:36:04;18.40;99.90
24800;DHT22;12897;50.812;4.430;2022-09-06T05:38:32;18.50;99.90
24800;DHT22;12897;50.812;4.430;2022-09-06T05:41:00;18.40;99.90
24800;DHT22;12897;50.812;4.430;2022-09-06T05:43:27;18.40;99.90
24800;DHT22;12897;50.812;4.430;2022-09-06T05:45:55;18.40;99.90
24800;DHT22;12897;50.812;4.430;2022-09-06T05:48:22;18.40;99.90
24800;DHT22;12897;50.812;4.430;2022-09-06T05:51:00;18.50;99.90
24800;DHT22;12897;50.812;4.430;2022-09-06T05:53:36;18.60;99.90
24800;DHT22;12897;50.812;4.430;2022-09-06T05:56:04;18.70;99.90
24800;DHT22;12897;50.812;4.430;2022-09-06T05:58:32;18.70;99.90
24800;DHT22;12897;50.812;4.430;2022-09-06T06:01:17;18.90;99.90
24800;DHT22;12897;50.812;4.430;2022-09-06T06:04:02;19.00;99.90
24800;DHT22;12897;50.812;4.430;2022-09-06T06:06:32;19.20;99.90
24800;DHT22;12897;50.812;4.430;2022-09-06T06:09:00;19.40;99.90
24800;DHT22;12897;50.812;4.430;2022-09-06T06:11:28;19.50;99.90
24800;DHT22;12897;50.812;4.430;2022-09-06T06:13:56;19.70;99.90
24800;DHT22;12897;50.812;4.430;2022-09-06T06:16:24;19.90;99.90
24800;DHT22;12897;50.812;4.430;2022-09-06T06:18:52;20.00;99.90
24800;DHT22;12897;50.812;4.430;2022-09-06T06:21:22;20.10;99.90
24800;DHT22;12897;50.812;4.430;2022-09-06T06:23:50;20.10;99.90
24800;DHT22;12897;50.812;4.430;2022-09-06T06:26:37;20.10;99.90
24800;DHT22;12897;50.812;4.430;2022-09-06T06:29:05;20.20;99.90
24800;DHT22;12897;50.812;4.430;2022-09-06T06:31:34;20.10;99.90
24800;DHT22;12897;50.812;4.430;2022-09-06T06:34:02;20.00;99.90
24800;DHT22;12897;50.812;4.430;2022-09-06T06:36:31;20.10;99.90
24800;DHT22;12897;50.812;4.430;2022-09-06T06:39:00;20.10;99.90
24800;DHT22;12897;50.812;4.430;2022-09-06T06:41:29;20.30;99.90
24800;DHT22;12897;50.812;4.430;2022-09-06T06:43:59;20.40;99.90
24800;DHT22;12897;50.812;4.430;2022-09-06T06:46:29;20.60;99.90
24800;DHT22;12897;50.812;4.430;2022-09-06T06:48:57;20.70;99.90
24800;DHT22;12897;50.812;4.430;2022-09-06T06:51:27;20.60;99.90
24800;DHT22;12897;50.812;4.430;2022-09-06T06:53:56;20.40;99.90
24800;DHT22;12897;50.812;4.430;2022-09-06T06:56:29;20.30;99.90
24800;DHT22;12897;50.812;4.430;2022-09-06T06:58:59;20.30;99.90
24800;DHT22;12897;50.812;4.430;2022-09-06T07:01:29;20.30;99.90
24800;DHT22;12897;50.812;4.430;2022-09-06T07:03:57;20.20;99.90
24800;DHT22;12897;50.812;4.430;2022-09-06T07:06:25;20.30;99.90
24800;DHT22;12897;50.812;4.430;2022-09-06T07:08:57;20.40;99.90
24800;DHT22;12897;50.812;4.430;2022-09-06T07:11:25;20.60;99.90
24800;DHT22;12897;50.812;4.430;2022-09-06T07:13:52;20.60;99.90
24800;DHT22;12897;50.812;4.430;2022-09-06T07:16:22;20.60;99.90
24800;DHT22;12897;50.812;4.430;2022-09-06T07:18:52;20.60;99.90
24800;DHT22;12897;50.812;4.430;2022-09-06T07:21:22;20.80;99.90
24800;DHT22;12897;50.812;4.430;2022-09-06T07:23:52;20.70;99.90
24800;DHT22;12897;50.812;4.430;2022-09-06T07:26:28;20.70;99.90
24800;DHT22;12897;50.812;4.430;2022-09-06T07:28:52;20.80;99.90
24800;DHT22;12897;50.812;4.430;2022-09-06T07:31:20;20.80;99.90
24800;DHT22;12897;50.812;4.430;2022-09-06T07:33:48;20.70;99.90
24800;DHT22;12897;50.812;4.430;2022-09-06T07:36:16;20.70;99.90
24800;DHT22;12897;50.812;4.430;2022-09-06T07:38:48;20.90;99.90
24800;DHT22;12897;50.812;4.430;2022-09-06T07:41:17;21.00;99.90
24800;DHT22;12897;50.812;4.430;2022-09-06T07:43:45;20.90;99.90
24800;DHT22;12897;50.812;4.430;2022-09-06T07:46:15;20.80;99.90
24800;DHT22;12897;50.812;4.430;2022-09-06T07:48:44;20.90;99.90
24800;DHT22;12897;50.812;4.430;2022-09-06T07:51:16;20.90;99.90
24800;DHT22;12897;50.812;4.430;2022-09-06T07:53:48;20.80;99.90
24800;DHT22;12897;50.812;4.430;2022-09-06T07:56:20;21.00;99.90
24800;DHT22;12897;50.812;4.430;2022-09-06T07:58:48;21.10;99.90
24800;DHT22;12897;50.812;4.430;2022-09-06T08:01:30;21.30;99.90
24800;DHT22;12897;50.812;4.430;2022-09-06T08:04:09;21.50;99.90
24800;DHT22;12897;50.812;4.430;2022-09-06T08:06:45;21.50;99.90
24800;DHT22;12897;50.812;4.430;2022-09-06T08:09:28;21.70;99.90
24800;DHT22;12897;50.812;4.430;2022-09-06T08:11:55;21.70;99.90
24800;DHT22;12897;50.812;4.430;2022-09-06T08:14:23;21.70;99.90
24800;DHT22;12897;50.812;4.430;2022-09-06T08:16:50;21.60;99.90
24800;DHT22;12897;50.812;4.430;2022-09-06T08:19:18;21.50;99.90
24800;DHT22;12897;50.812;4.430;2022-09-06T08:21:45;21.60;99.90
24800;DHT22;12897;50.812;4.430;2022-09-06T08:24:13;21.60;99.90
24800;DHT22;12897;50.812;4.430;2022-09-06T08:26:40;21.60;99.90
24800;DHT22;12897;50.812;4.430;2022-09-06T08:29:08;21.50;99.90
24800;DHT22;12897;50.812;4.430;2022-09-06T08:31:43;21.30;99.90
24800;DHT22;12897;50.812;4.430;2022-09-06T08:34:07;21.40;99.90
24800;DHT22;12897;50.812;4.430;2022-09-06T08:36:37;21.40;99.90
24800;DHT22;12897;50.812;4.430;2022-09-06T08:39:06;21.50;99.90
24800;DHT22;12897;50.812;4.430;2022-09-06T08:44:18;21.60;99.90
24800;DHT22;12897;50.812;4.430;2022-09-06T08:49:12;21.90;99.90
24800;DHT22;12897;50.812;4.430;2022-09-06T08:57:30;21.90;99.90
24800;DHT22;12897;50.812;4.430;2022-09-06T09:00:01;22.00;99.90
24800;DHT22;12897;50.812;4.430;2022-09-06T09:02:33;22.00;99.90
24800;DHT22;12897;50.812;4.430;2022-09-06T09:05:03;22.10;99.90
24800;DHT22;12897;50.812;4.430;2022-09-06T09:07:46;22.20;99.90
24800;DHT22;12897;50.812;4.430;2022-09-06T09:10:39;22.40;99.90
24800;DHT22;12897;50.812;4.430;2022-09-06T09:13:08;22.40;99.90
24800;DHT22;12897;50.812;4.430;2022-09-06T09:15:38;22.40;99.90
24800;DHT22;12897;50.812;4.430;2022-09-06T09:18:05;22.60;99.90
24800;DHT22;12897;50.812;4.430;2022-09-06T09:20:33;22.80;99.90
24800;DHT22;12897;50.812;4.430;2022-09-06T09:23:01;22.80;99.90
24800;DHT22;12897;50.812;4.430;2022-09-06T09:25:30;22.90;99.90
24800;DHT22;12897;50.812;4.430;2022-09-06T09:27:59;23.00;99.90
24800;DHT22;12897;50.812;4.430;2022-09-06T09:30:43;23.20;99.90
24800;DHT22;12897;50.812;4.430;2022-09-06T09:32:57;23.30;99.90
24800;DHT22;12897;50.812;4.430;2022-09-06T09:35:39;23.30;99.90
24800;DHT22;12897;50.812;4.430;2022-09-06T09:38:09;23.20;99.90
24800;DHT22;12897;50.812;4.430;2022-09-06T09:41:04;23.10;99.90
24800;DHT22;12897;50.812;4.430;2022-09-06T09:43:39;23.10;99.90
24800;DHT22;12897;50.812;4.430;2022-09-06T09:46:27;23.10;99.90
24800;DHT22;12897;50.812;4.430;2022-09-06T09:51:37;23.10;99.90
24800;DHT22;12897;50.812;4.430;2022-09-06T09:54:07;23.10;99.90
24800;DHT22;12897;50.812;4.430;2022-09-06T09:56:44;23.10;99.90
24800;DHT22;12897;50.812;4.430;2022-09-06T09:59:44;23.20;99.90
24800;DHT22;12897;50.812;4.430;2022-09-06T10:01:58;23.20;99.90
24800;DHT22;12897;50.812;4.430;2022-09-06T10:04:36;23.30;99.90
24800;DHT22;12897;50.812;4.430;2022-09-06T10:07:58;23.30;99.90
24800;DHT22;12897;50.812;4.430;2022-09-06T10:09:38;23.30;99.90
24800;DHT22;12897;50.812;4.430;2022-09-06T10:12:07;23.20;99.90
24800;DHT22;12897;50.812;4.430;2022-09-06T10:14:43;23.20;99.90
24800;DHT22;12897;50.812;4.430;2022-09-06T10:17:31;23.30;99.90
24800;DHT22;12897;50.812;4.430;2022-09-06T10:20:03;23.40;99.90
24800;DHT22;12897;50.812;4.430;2022-09-06T10:25:46;23.50;99.90
24800;DHT22;12897;50.812;4.430;2022-09-06T10:28:32;23.60;99.90
24800;DHT22;12897;50.812;4.430;2022-09-06T10:39:53;23.80;99.90
24800;DHT22;12897;50.812;4.430;2022-09-06T10:48:07;23.90;99.90
24800;DHT22;12897;50.812;4.430;2022-09-06T10:50:47;23.90;99.90
24800;DHT22;12897;50.812;4.430;2022-09-06T10:56:17;23.90;99.90
24800;DHT22;12897;50.812;4.430;2022-09-06T11:04:31;23.90;99.90
24800;DHT22;12897;50.812;4.430;2022-09-06T11:07:00;24.00;99.90
24800;DHT22;12897;50.812;4.430;2022-09-06T11:09:45;24.20;99.90
24800;DHT22;12897;50.812;4.430;2022-09-06T11:12:38;24.30;99.90
24800;DHT22;12897;50.812;4.430;2022-09-06T11:15:07;24.40;99.90
24800;DHT22;12897;50.812;4.430;2022-09-06T11:17:45;24.30;99.90
24800;DHT22;12897;50.812;4.430;2022-09-06T11:20:21;24.20;99.90
24800;DHT22;12897;50.812;4.430;2022-09-06T11:25:45;24.60;99.90
24800;DHT22;12897;50.812;4.430;2022-09-06T11:28:28;24.70;99.90
24800;DHT22;12897;50.812;4.430;2022-09-06T11:30:54;24.60;99.90
24800;DHT22;12897;50.812;4.430;2022-09-06T11:33:27;24.90;99.90
24800;DHT22;12897;50.812;4.430;2022-09-06T11:36:22;24.80;99.90
24800;DHT22;12897;50.812;4.430;2022-09-06T11:38:55;24.80;99.90
24800;DHT22;12897;50.812;4.430;2022-09-06T11:41:26;24.90;99.90
24800;DHT22;12897;50.812;4.430;2022-09-06T11:43:53;25.20;99.90
24800;DHT22;12897;50.812;4.430;2022-09-06T11:51:53;25.40;99.90
24800;DHT22;12897;50.812;4.430;2022-09-06T11:54:23;25.60;99.90
24800;DHT22;12897;50.812;4.430;2022-09-06T11:57:16;25.50;99.90
24800;DHT22;12897;50.812;4.430;2022-09-06T11:59:52;25.40;99.90
24800;DHT22;12897;50.812;4.430;2022-09-06T12:02:35;25.30;99.90
24800;DHT22;12897;50.812;4.430;2022-09-06T12:07:36;25.40;99.90
24800;DHT22;12897;50.812;4.430;2022-09-06T12:12:57;25.20;99.90
24800;DHT22;12897;50.812;4.430;2022-09-06T12:15:30;25.30;99.90
24800;DHT22;12897;50.812;4.430;2022-09-06T12:17:59;25.60;99.90
24800;DHT22;12897;50.812;4.430;2022-09-06T12:23:39;25.70;99.90
24800;DHT22;12897;50.812;4.430;2022-09-06T12:26:10;25.60;99.90
24800;DHT22;12897;50.812;4.430;2022-09-06T12:31:36;25.60;99.90
24800;DHT22;12897;50.812;4.430;2022-09-06T12:34:16;25.40;99.90
24800;DHT22;12897;50.812;4.430;2022-09-06T12:36:48;25.50;99.90
24800;DHT22;12897;50.812;4.430;2022-09-06T12:39:16;25.70;99.90
24800;DHT22;12897;50.812;4.430;2022-09-06T12:41:48;26.10;99.90
24800;DHT22;12897;50.812;4.430;2022-09-06T12:44:16;26.40;99.90
24800;DHT22;12897;50.812;4.430;2022-09-06T12:46:47;26.60;99.90
24800;DHT22;12897;50.812;4.430;2022-09-06T12:49:19;26.40;99.90
24800;DHT22;12897;50.812;4.430;2022-09-06T12:51:48;26.30;99.90
24800;DHT22;12897;50.812;4.430;2022-09-06T12:54:24;26.60;99.90
24800;DHT22;12897;50.812;4.430;2022-09-06T12:57:10;26.70;99.90
24800;DHT22;12897;50.812;4.430;2022-09-06T12:59:25;27.00;99.90
24800;DHT22;12897;50.812;4.430;2022-09-06T13:01:59;26.70;99.90
24800;DHT22;12897;50.812;4.430;2022-09-06T13:04:31;26.60;99.90
24800;DHT22;12897;50.812;4.430;2022-09-06T13:07:03;26.40;99.90
24800;DHT22;12897;50.812;4.430;2022-09-06T13:09:32;26.60;99.90
24800;DHT22;12897;50.812;4.430;2022-09-06T13:12:06;26.70;99.90
24800;DHT22;12897;50.812;4.430;2022-09-06T13:14:35;26.70;99.90
24800;DHT22;12897;50.812;4.430;2022-09-06T13:17:02;26.70;99.90
24800;DHT22;12897;50.812;4.430;2022-09-06T13:19:40;26.70;99.90
24800;DHT22;12897;50.812;4.430;2022-09-06T13:22:06;26.60;99.90
24800;DHT22;12897;50.812;4.430;2022-09-06T13:24:40;26.40;99.90
24800;DHT22;12897;50.812;4.430;2022-09-06T13:27:35;26.80;99.90
24800;DHT22;12897;50.812;4.430;2022-09-06T13:30:09;26.90;99.90
24800;DHT22;12897;50.812;4.430;2022-09-06T13:32:44;27.00;99.90
24800;DHT22;12897;50.812;4.430;2022-09-06T13:35:09;27.10;99.90
24800;DHT22;12897;50.812;4.430;2022-09-06T13:37:38;26.80;99.90
24800;DHT22;12897;50.812;4.430;2022-09-06T13:40:40;26.90;99.90
24800;DHT22;12897;50.812;4.430;2022-09-06T13:43:10;27.00;99.90
24800;DHT22;12897;50.812;4.430;2022-09-06T13:45:37;27.10;99.90
24800;DHT22;12897;50.812;4.430;2022-09-06T13:48:05;27.20;99.90
24800;DHT22;12897;50.812;4.430;2022-09-06T13:50:35;27.00;99.90
24800;DHT22;12897;50.812;4.430;2022-09-06T13:53:02;27.10;99.90
24800;DHT22;12897;50.812;4.430;2022-09-06T13:55:30;27.60;99.90
24800;DHT22;12897;50.812;4.430;2022-09-06T13:58:00;27.80;99.90
24800;DHT22;12897;50.812;4.430;2022-09-06T14:00:29;28.00;99.90
24800;DHT22;12897;50.812;4.430;2022-09-06T14:02:56;28.00;99.60
24800;DHT22;12897;50.812;4.430;2022-09-06T14:05:24;28.20;99.90
24800;DHT22;12897;50.812;4.430;2022-09-06T14:07:52;28.20;99.80
24800;DHT22;12897;50.812;4.430;2022-09-06T14:10:19;27.90;99.90
24800;DHT22;12897;50.812;4.430;2022-09-06T14:12:49;28.20;99.90
24800;DHT22;12897;50.812;4.430;2022-09-06T14:15:18;28.40;99.90
24800;DHT22;12897;50.812;4.430;2022-09-06T14:17:47;28.50;99.40
24800;DHT22;12897;50.812;4.430;2022-09-06T14:20:14;28.40;99.20
24800;DHT22;12897;50.812;4.430;2022-09-06T14:22:42;28.40;98.40
24800;DHT22;12897;50.812;4.430;2022-09-06T14:25:09;28.70;97.70
24800;DHT22;12897;50.812;4.430;2022-09-06T14:27:37;28.70;97.20
24800;DHT22;12897;50.812;4.430;2022-09-06T14:30:05;28.70;98.40
24800;DHT22;12897;50.812;4.430;2022-09-06T14:32:33;28.70;98.20
24800;DHT22;12897;50.812;4.430;2022-09-06T14:35:01;28.80;97.20
24800;DHT22;12897;50.812;4.430;2022-09-06T14:37:32;28.80;96.30
24800;DHT22;12897;50.812;4.430;2022-09-06T14:40:00;28.70;97.20
24800;DHT22;12897;50.812;4.430;2022-09-06T14:42:28;28.50;97.70
24800;DHT22;12897;50.812;4.430;2022-09-06T14:44:56;28.70;95.90
24800;DHT22;12897;50.812;4.430;2022-09-06T14:47:23;28.70;96.10
24800;DHT22;12897;50.812;4.430;2022-09-06T14:49:51;28.80;94.80
24800;DHT22;12897;50.812;4.430;2022-09-06T14:52:19;28.50;96.50
24800;DHT22;12897;50.812;4.430;2022-09-06T14:54:46;28.20;97.00
24800;DHT22;12897;50.812;4.430;2022-09-06T14:57:15;27.90;98.30
24800;DHT22;12897;50.812;4.430;2022-09-06T14:59:43;27.50;99.90
24800;DHT22;12897;50.812;4.430;2022-09-06T15:02:10;27.30;99.90
24800;DHT22;12897;50.812;4.430;2022-09-06T15:04:39;27.10;99.90
24800;DHT22;12897;50.812;4.430;2022-09-06T15:07:08;27.20;99.90
24800;DHT22;12897;50.812;4.430;2022-09-06T15:09:36;27.40;99.90
24800;DHT22;12897;50.812;4.430;2022-09-06T15:12:24;27.60;99.90
24800;DHT22;12897;50.812;4.430;2022-09-06T15:14:52;27.80;99.90
24800;DHT22;12897;50.812;4.430;2022-09-06T15:17:19;27.10;99.90
24800;DHT22;12897;50.812;4.430;2022-09-06T15:19:47;27.20;99.90
24800;DHT22;12897;50.812;4.430;2022-09-06T15:22:15;27.30;99.90
24800;DHT22;12897;50.812;4.430;2022-09-06T15:24:43;27.60;99.90
24800;DHT22;12897;50.812;4.430;2022-09-06T15:27:11;27.40;99.90
24800;DHT22;12897;50.812;4.430;2022-09-06T15:29:38;27.10;99.90
24800;DHT22;12897;50.812;4.430;2022-09-06T15:32:06;26.50;99.90
24800;DHT22;12897;50.812;4.430;2022-09-06T15:34:34;26.30;99.90
24800;DHT22;12897;50.812;4.430;2022-09-06T15:37:01;26.30;99.90
24800;DHT22;12897;50.812;4.430;2022-09-06T15:39:29;26.40;99.90
24800;DHT22;12897;50.812;4.430;2022-09-06T15:41:56;26.40;99.90
24800;DHT22;12897;50.812;4.430;2022-09-06T15:44:25;26.30;99.90
24800;DHT22;12897;50.812;4.430;2022-09-06T15:46:55;26.40;99.90
24800;DHT22;12897;50.812;4.430;2022-09-06T15:49:30;26.50;99.90
24800;DHT22;12897;50.812;4.430;2022-09-06T15:52:00;26.10;99.90
24800;DHT22;12897;50.812;4.430;2022-09-06T15:54:28;25.80;99.90
24800;DHT22;12897;50.812;4.430;2022-09-06T15:57:16;25.40;99.90
24800;DHT22;12897;50.812;4.430;2022-09-06T15:59:44;25.40;99.90
24800;DHT22;12897;50.812;4.430;2022-09-06T16:02:12;25.50;99.90
24800;DHT22;12897;50.812;4.430;2022-09-06T16:04:40;25.70;99.90
24800;DHT22;12897;50.812;4.430;2022-09-06T16:07:07;25.80;99.90
24800;DHT22;12897;50.812;4.430;2022-09-06T16:09:35;25.90;99.90
24800;DHT22;12897;50.812;4.430;2022-09-06T16:12:03;26.20;99.90
24800;DHT22;12897;50.812;4.430;2022-09-06T16:14:31;26.30;99.90
24800;DHT22;12897;50.812;4.430;2022-09-06T16:16:58;26.40;99.90
24800;DHT22;12897;50.812;4.430;2022-09-06T16:19:26;26.40;99.90
24800;DHT22;12897;50.812;4.430;2022-09-06T16:21:53;26.30;99.90
24800;DHT22;12897;50.812;4.430;2022-09-06T16:24:22;26.10;99.90
24800;DHT22;12897;50.812;4.430;2022-09-06T16:26:50;26.10;99.90
24800;DHT22;12897;50.812;4.430;2022-09-06T16:29:18;26.40;99.90
24800;DHT22;12897;50.812;4.430;2022-09-06T16:31:46;26.70;99.90
24800;DHT22;12897;50.812;4.430;2022-09-06T16:34:16;27.10;99.90
24800;DHT22;12897;50.812;4.430;2022-09-06T16:36:45;27.50;99.90
24800;DHT22;12897;50.812;4.430;2022-09-06T16:39:14;27.70;99.90
24800;DHT22;12897;50.812;4.430;2022-09-06T16:41:45;27.80;99.90
24800;DHT22;12897;50.812;4.430;2022-09-06T16:44:16;27.90;99.90
24800;DHT22;12897;50.812;4.430;2022-09-06T16:46:45;28.10;99.90
24800;DHT22;12897;50.812;4.430;2022-09-06T16:49:14;28.10;99.90
24800;DHT22;12897;50.812;4.430;2022-09-06T16:51:42;28.10;99.90
24800;DHT22;12897;50.812;4.430;2022-09-06T16:54:10;27.90;99.90
24800;DHT22;12897;50.812;4.430;2022-09-06T16:56:39;27.60;99.90
24800;DHT22;12897;50.812;4.430;2022-09-06T16:59:08;27.50;99.90
24800;DHT22;12897;50.812;4.430;2022-09-06T17:01:37;27.20;99.90
24800;DHT22;12897;50.812;4.430;2022-09-06T17:04:08;26.90;99.90
24800;DHT22;12897;50.812;4.430;2022-09-06T17:06:36;26.90;99.90
24800;DHT22;12897;50.812;4.430;2022-09-06T17:09:05;26.70;99.90
24800;DHT22;12897;50.812;4.430;2022-09-06T17:11:33;26.50;99.90
24800;DHT22;12897;50.812;4.430;2022-09-06T17:14:02;26.20;99.90
24800;DHT22;12897;50.812;4.430;2022-09-06T17:16:30;26.20;99.90
24800;DHT22;12897;50.812;4.430;2022-09-06T17:19:15;26.20;99.90
24800;DHT22;12897;50.812;4.430;2022-09-06T17:21:43;26.00;99.90
24800;DHT22;12897;50.812;4.430;2022-09-06T17:24:13;25.70;99.90